Time;durP1;ratioP1;P1;durP2;ratioP2;P2;SDS_P1;SDS_P2;PMS_P1;PMS_P2;Temp;Humidity;BMP_temperature;BMP_pressure;BME280_temperature;BME280_humidity;BME280_pressure;Samples;Min_cycle;Max_cycle;Signal;HPM_P1;HPM_P2
2022/06/19 00:00:40;;;;;;;;;;;;;;;17.61;79.62;100109.78;4992361;28;20016;-89
2022/06/19 00:03:07;;;;;;;;;;;;;;;17.50;80.62;100111.09;4995349;28;19918;-88
2022/06/19 00:05:32;;;;;;;;;;;;;;;17.44;81.02;100115.75;4994984;28;19987;-88
2022/06/19 00:07:58;;;;;;;;;;;;;;;17.70;80.37;100110.34;4995142;28;20416;-88
2022/06/19 00:10:23;;;;;;;;;;;;;;;17.85;79.52;100114.22;4994013;28;20458;-87
2022/06/19 00:12:49;;;;;;;;;;;;;;;17.97;78.92;100114.72;4995110;28;20012;-87
2022/06/19 00:15:15;;;;;;;;;;;;;;;17.99;78.09;100111.03;4995104;28;20375;-87
2022/06/19 00:17:40;;;;;;;;;;;;;;;18.04;78.26;100109.06;4995267;28;19945;-88
2022/06/19 00:20:07;;;;;;;;;;;;;;;18.05;77.80;100109.94;4994534;28;19968;-88
2022/06/19 00:22:32;;;;;;;;;;;;;;;17.95;76.84;100111.22;4994460;28;19918;-88
2022/06/19 00:24:58;;;;;;;;;;;;;;;17.77;77.45;100116.31;4995306;28;20396;-89
2022/06/19 00:27:24;;;;;;;;;;;;;;;17.66;78.41;100113.19;4994116;28;20612;-88
2022/06/19 00:29:50;;;;;;;;;;;;;;;17.75;78.03;100122.63;4994907;28;20008;-91
2022/06/19 00:32:16;;;;;;;;;;;;;;;17.80;77.84;100110.00;4992037;28;20004;-89
2022/06/19 00:34:41;;;;;;;;;;;;;;;17.83;77.36;100115.22;5000182;28;19918;-88
2022/06/19 00:37:07;;;;;;;;;;;;;;;17.82;77.07;100111.66;5013516;28;20011;-88
2022/06/19 00:39:32;;;;;;;;;;;;;;;17.76;77.51;100105.69;5014519;28;19917;-87
2022/06/19 00:41:59;;;;;;;;;;;;;;;17.79;77.36;100105.56;5012581;28;19940;-88
2022/06/19 00:44:25;;;;;;;;;;;;;;;17.67;77.79;100107.78;5013538;28;19913;-88
2022/06/19 00:46:55;;;;;;;;;;;;;;;17.61;78.53;100101.78;5014485;28;20323;-88
2022/06/19 00:49:23;;;;;;;;;;;;;;;17.65;78.28;100103.44;5013351;28;19914;-88
2022/06/19 00:51:54;;;;;;;;;;;;;;;17.79;77.62;100108.25;5014387;28;19913;-88
2022/06/19 00:54:21;;;;;;;;;;;;;;;17.84;76.92;100103.59;5014930;28;19913;-87
2022/06/19 00:56:46;;;;;;;;;;;;;;;17.86;76.68;100096.41;5013881;28;19917;-87
2022/06/19 00:59:14;;;;;;;;;;;;;;;17.79;76.49;100106.44;5014057;28;20311;-88
2022/06/19 01:01:39;;;;;;;;;;;;;;;17.78;76.81;100111.84;5014253;28;19979;-86
2022/06/19 01:04:09;;;;;;;;;;;;;;;17.84;76.31;100109.81;5014249;28;19909;-88
2022/06/19 01:06:35;;;;;;;;;;;;;;;17.82;76.46;100110.78;5014283;28;19920;-88
2022/06/19 01:09:00;;;;;;;;;;;;;;;17.74;76.01;100105.75;5012538;28;19996;-86
2022/06/19 01:11:29;;;;;;;;;;;;;;;17.65;75.95;100106.09;5014158;28;19921;-87
2022/06/19 01:13:54;;;;;;;;;;;;;;;17.67;75.70;100105.13;5013192;28;20004;-86
2022/06/19 01:16:20;;;;;;;;;;;;;;;17.47;76.34;100107.66;5013723;28;19956;-86
2022/06/19 01:18:45;;;;;;;;;;;;;;;17.45;76.40;100115.69;5013539;28;19921;-87
2022/06/19 01:21:28;;;;;;;;;;;;;;;17.41;75.94;100110.53;5013694;28;19955;-88
2022/06/19 01:23:53;;;;;;;;;;;;;;;17.31;76.33;100113.53;5013660;28;20020;-88
2022/06/19 01:26:19;;;;;;;;;;;;;;;17.25;76.73;100121.75;5014208;28;20065;-89
2022/06/19 01:28:56;;;;;;;;;;;;;;;17.36;76.30;100113.38;5013763;28;19925;-87
2022/06/19 01:31:45;;;;;;;;;;;;;;;17.45;75.76;100109.50;5011919;28;20376;-87
2022/06/19 01:34:28;;;;;;;;;;;;;;;17.44;76.07;100111.31;5004948;28;19917;-88
2022/06/19 01:36:58;;;;;;;;;;;;;;;17.34;77.06;100117.91;5013643;28;19917;-87
2022/06/19 01:39:24;;;;;;;;;;;;;;;17.45;76.72;100118.38;5012784;28;19925;-87
2022/06/19 01:41:49;;;;;;;;;;;;;;;17.61;76.43;100116.03;5013610;28;19948;-88
2022/06/19 01:44:15;;;;;;;;;;;;;;;17.57;77.08;100118.88;5013386;28;19968;-87
2022/06/19 01:46:40;;;;;;;;;;;;;;;17.12;78.88;100118.66;5013119;28;19979;-87
2022/06/19 01:49:06;;;;;;;;;;;;;;;17.33;78.47;100116.16;5012180;28;20296;-88
2022/06/19 01:51:32;;;;;;;;;;;;;;;17.43;77.95;100116.69;5012090;28;20423;-88
2022/06/19 01:53:59;;;;;;;;;;;;;;;17.31;78.46;100124.19;5013384;28;19914;-88
2022/06/19 01:56:25;;;;;;;;;;;;;;;17.28;78.99;100126.97;5012029;28;19971;-87
2022/06/19 01:58:52;;;;;;;;;;;;;;;17.33;78.75;100127.72;5013155;28;19914;-89
2022/06/19 02:01:17;;;;;;;;;;;;;;;17.28;77.88;100126.13;5012060;28;19925;-88
2022/06/19 02:03:42;;;;;;;;;;;;;;;17.20;78.54;100131.72;5012699;28;19921;-89
2022/06/19 02:06:09;;;;;;;;;;;;;;;17.16;77.99;100135.41;5011780;28;19917;-88
2022/06/19 02:08:35;;;;;;;;;;;;;;;17.29;77.34;100133.19;5012780;28;19924;-88
2022/06/19 02:11:01;;;;;;;;;;;;;;;17.34;77.26;100128.56;5013429;28;19913;-88
2022/06/19 02:13:26;;;;;;;;;;;;;;;17.39;76.88;100128.41;5012266;28;19918;-86
2022/06/19 02:15:53;;;;;;;;;;;;;;;17.39;77.12;100123.94;5012706;28;19921;-85
2022/06/19 02:18:26;;;;;;;;;;;;;;;17.46;76.70;100129.94;5008611;28;20368;-85
2022/06/19 02:20:52;;;;;;;;;;;;;;;17.46;76.61;100128.13;4996445;28;19918;-85
2022/06/19 02:23:37;;;;;;;;;;;;;;;17.32;77.61;100122.44;5011165;28;19924;-86
2022/06/19 02:26:07;;;;;;;;;;;;;;;17.25;78.15;100136.88;5012391;28;20299;-86
2022/06/19 02:28:36;;;;;;;;;;;;;;;17.32;77.87;100136.63;5010797;28;19925;-85
2022/06/19 02:31:02;;;;;;;;;;;;;;;17.45;77.58;100131.69;5012159;28;19914;-85
2022/06/19 02:33:30;;;;;;;;;;;;;;;17.42;77.18;100134.47;5011563;28;19984;-85
2022/06/19 02:35:55;;;;;;;;;;;;;;;17.37;77.52;100133.78;5012317;28;19917;-85
2022/06/19 02:38:21;;;;;;;;;;;;;;;17.45;76.37;100131.69;5002478;28;19924;-85
2022/06/19 02:40:49;;;;;;;;;;;;;;;17.46;75.18;100135.25;5011671;28;19963;-86
2022/06/19 02:43:22;;;;;;;;;;;;;;;17.23;76.25;100146.75;4994753;28;19925;-87
2022/06/19 02:45:48;;;;;;;;;;;;;;;17.13;76.72;100141.75;5011816;28;19917;-85
2022/06/19 02:48:19;;;;;;;;;;;;;;;17.06;77.06;100144.69;5010431;28;19913;-85
2022/06/19 02:50:44;;;;;;;;;;;;;;;17.07;77.36;100146.41;5011169;28;19917;-85
2022/06/19 02:53:10;;;;;;;;;;;;;;;17.12;77.31;100150.66;5011761;28;20394;-85
2022/06/19 02:55:36;;;;;;;;;;;;;;;17.17;77.34;100142.50;5011269;28;19913;-84
2022/06/19 02:58:01;;;;;;;;;;;;;;;17.15;77.48;100139.03;5011932;28;20000;-84
2022/06/19 03:00:27;;;;;;;;;;;;;;;17.25;77.41;100139.56;4994169;28;20450;-83
2022/06/19 03:02:55;;;;;;;;;;;;;;;17.28;77.26;100145.63;5011962;28;19917;-83
2022/06/19 03:05:22;;;;;;;;;;;;;;;17.36;76.86;100140.03;5011967;28;19913;-83
2022/06/19 03:07:47;;;;;;;;;;;;;;;17.35;77.10;100135.66;5007343;28;20447;-86
2022/06/19 03:10:13;;;;;;;;;;;;;;;17.30;77.12;100130.47;5009411;28;19979;-86
2022/06/19 03:12:38;;;;;;;;;;;;;;;17.15;78.16;100129.22;5011719;28;19925;-86
2022/06/19 03:15:04;;;;;;;;;;;;;;;17.22;78.15;100134.34;5011892;28;20399;-86
2022/06/19 03:17:29;;;;;;;;;;;;;;;17.41;77.67;100131.88;5011560;28;20007;-86
2022/06/19 03:19:55;;;;;;;;;;;;;;;17.42;77.22;100128.28;5011720;28;19921;-87
2022/06/19 03:22:20;;;;;;;;;;;;;;;17.11;78.82;100132.91;5011540;28;19928;-86
2022/06/19 03:24:45;;;;;;;;;;;;;;;17.25;78.79;100136.88;5011523;28;19918;-86
2022/06/19 03:27:12;;;;;;;;;;;;;;;17.22;79.25;100135.19;5011966;28;19913;-86
2022/06/19 03:29:37;;;;;;;;;;;;;;;17.18;79.65;100136.25;5011532;28;19945;-86
2022/06/19 03:32:03;;;;;;;;;;;;;;;17.18;80.13;100136.25;5011909;28;19964;-85
2022/06/19 03:34:29;;;;;;;;;;;;;;;17.30;80.08;100135.81;5011370;28;20055;-85
2022/06/19 03:36:55;;;;;;;;;;;;;;;17.33;80.61;100134.81;5010806;28;19917;-85
2022/06/19 03:39:21;;;;;;;;;;;;;;;17.67;79.06;100131.81;5010907;28;21695;-85
2022/06/19 03:41:46;;;;;;;;;;;;;;;17.64;79.38;100136.34;5011500;28;19913;-86
2022/06/19 03:44:11;;;;;;;;;;;;;;;17.76;78.64;100138.56;5011736;28;19920;-86
2022/06/19 03:46:37;;;;;;;;;;;;;;;17.82;78.13;100127.66;5011415;28;19917;-86
2022/06/19 03:49:03;;;;;;;;;;;;;;;17.94;77.46;100130.84;5010894;28;20395;-86
2022/06/19 03:51:28;;;;;;;;;;;;;;;17.89;78.17;100125.69;5010638;28;19940;-85
2022/06/19 03:53:54;;;;;;;;;;;;;;;17.62;79.51;100125.75;5010359;28;20004;-85
2022/06/19 03:56:21;;;;;;;;;;;;;;;17.62;80.30;100127.56;5010630;28;19922;-85
2022/06/19 03:58:46;;;;;;;;;;;;;;;17.56;81.58;100127.78;4993107;28;20373;-85
2022/06/19 04:01:13;;;;;;;;;;;;;;;17.52;81.47;100127.91;5010630;28;19921;-85
2022/06/19 04:03:39;;;;;;;;;;;;;;;17.62;80.89;100125.75;5010683;28;19917;-85
2022/06/19 04:06:04;;;;;;;;;;;;;;;17.58;81.01;100125.91;5009704;28;19975;-85
2022/06/19 04:08:29;;;;;;;;;;;;;;;18.01;79.91;100133.22;5011142;28;19921;-85
2022/06/19 04:10:55;;;;;;;;;;;;;;;18.29;77.83;100134.81;4993568;28;20375;-87
2022/06/19 04:13:20;;;;;;;;;;;;;;;18.52;77.42;100135.66;5011121;28;19913;-88
2022/06/19 04:15:45;;;;;;;;;;;;;;;18.33;79.04;100141.75;5010270;28;20403;-86
2022/06/19 04:18:11;;;;;;;;;;;;;;;18.22;80.55;100141.31;5010245;28;20391;-86
2022/06/19 04:20:36;;;;;;;;;;;;;;;18.29;79.44;100145.47;5007038;28;19968;-86
2022/06/19 04:23:01;;;;;;;;;;;;;;;18.71;78.38;100150.00;5010424;28;20008;-86
2022/06/19 04:25:28;;;;;;;;;;;;;;;18.96;76.89;100146.34;5011120;28;19914;-86
2022/06/19 04:27:53;;;;;;;;;;;;;;;18.73;77.41;100149.94;5010239;28;19917;-87
2022/06/19 04:30:18;;;;;;;;;;;;;;;18.79;78.02;100153.22;5011127;28;20402;-86
2022/06/19 04:32:44;;;;;;;;;;;;;;;18.89;77.21;100156.44;5010169;28;19976;-86
2022/06/19 04:35:09;;;;;;;;;;;;;;;19.16;76.44;100149.97;5010465;28;19917;-86
2022/06/19 04:37:34;;;;;;;;;;;;;;;19.48;75.22;100145.88;5010371;28;19924;-86
2022/06/19 04:40:00;;;;;;;;;;;;;;;19.49;75.11;100139.56;5011010;28;19914;-85
2022/06/19 04:42:25;;;;;;;;;;;;;;;19.39;76.56;100139.13;5011235;28;19914;-86
2022/06/19 04:44:50;;;;;;;;;;;;;;;19.43;77.11;100145.19;5010326;28;19917;-86
2022/06/19 04:47:15;;;;;;;;;;;;;;;19.64;76.74;100144.22;5011629;28;19913;-87
2022/06/19 04:49:41;;;;;;;;;;;;;;;20.12;74.96;100142.06;5014113;28;19971;-86
2022/06/19 04:52:06;;;;;;;;;;;;;;;20.12;72.50;100147.41;5013919;28;19920;-86
2022/06/19 04:54:32;;;;;;;;;;;;;;;20.07;74.07;100148.59;5014837;28;20284;-86
2022/06/19 04:56:57;;;;;;;;;;;;;;;20.33;74.02;100155.38;5014474;28;20406;-85
2022/06/19 04:59:22;;;;;;;;;;;;;;;19.92;73.98;100158.19;5013671;28;20569;-86
2022/06/19 05:01:47;;;;;;;;;;;;;;;20.17;75.28;100153.44;5013915;28;19913;-86
2022/06/19 05:04:13;;;;;;;;;;;;;;;20.75;72.91;100154.25;5001409;28;19921;-91
2022/06/19 05:06:38;;;;;;;;;;;;;;;20.87;72.49;100155.44;5007288;28;19917;-89
2022/06/19 05:09:04;;;;;;;;;;;;;;;21.10;71.62;100160.50;5013821;28;20375;-92
2022/06/19 05:11:33;;;;;;;;;;;;;;;20.85;70.12;100160.00;5013202;28;19917;-92
2022/06/19 05:13:58;;;;;;;;;;;;;;;20.55;70.83;100157.88;5013765;28;19913;-92
2022/06/19 05:16:24;;;;;;;;;;;;;;;20.93;70.46;100163.19;5013472;28;19917;-91
2022/06/19 05:18:50;;;;;;;;;;;;;;;20.81;70.73;100159.28;5013691;28;19913;-88
2022/06/19 05:21:16;;;;;;;;;;;;;;;21.22;69.95;100164.34;4993289;28;19918;-90
2022/06/19 05:23:42;;;;;;;;;;;;;;;21.22;68.12;100160.78;4994918;28;19914;-91
2022/06/19 05:26:12;;;;;;;;;;;;;;;21.34;68.93;100162.00;5004359;28;20320;-90
2022/06/19 05:28:38;;;;;;;;;;;;;;;21.05;68.79;100164.34;5013478;28;19917;-92
2022/06/19 05:31:03;;;;;;;;;;;;;;;21.17;69.01;100168.22;5014068;28;19925;-91
2022/06/19 05:33:29;;;;;;;;;;;;;;;21.73;67.56;100166.22;5013762;28;19920;-94
2022/06/19 05:35:55;;;;;;;;;;;;;;;21.68;66.19;100165.59;5010455;28;19926;-91
2022/06/19 05:38:20;;;;;;;;;;;;;;;22.09;66.14;100160.66;5006820;28;20315;-91
2022/06/19 05:40:46;;;;;;;;;;;;;;;22.41;65.60;100159.81;5006166;28;20383;-91
2022/06/19 05:43:11;;;;;;;;;;;;;;;22.44;63.39;100163.19;5002956;28;19968;-88
2022/06/19 05:45:36;;;;;;;;;;;;;;;22.05;65.72;100158.22;5007096;28;19921;-90
2022/06/19 05:48:02;;;;;;;;;;;;;;;22.70;64.04;100164.38;5004040;28;19917;-89
2022/06/19 05:50:28;;;;;;;;;;;;;;;23.06;63.39;100154.22;5003379;28;19944;-88
2022/06/19 05:52:53;;;;;;;;;;;;;;;22.90;63.87;100159.66;5004231;28;19918;-92
2022/06/19 05:55:18;;;;;;;;;;;;;;;23.10;63.29;100157.66;5011366;28;19924;-89
2022/06/19 05:57:44;;;;;;;;;;;;;;;23.78;60.21;100157.06;5002243;28;19921;-90
2022/06/19 06:00:10;;;;;;;;;;;;;;;23.42;60.20;100158.41;5003382;28;19917;-89
2022/06/19 06:02:35;;;;;;;;;;;;;;;23.47;61.38;100158.97;4993362;28;19914;-89
2022/06/19 06:05:01;;;;;;;;;;;;;;;23.75;59.66;100163.50;5012891;28;19935;-88
2022/06/19 06:07:26;;;;;;;;;;;;;;;23.90;57.19;100153.63;5012953;28;20008;-87
2022/06/19 06:09:52;;;;;;;;;;;;;;;24.08;60.75;100156.09;5013202;28;19913;-87
2022/06/19 06:12:17;;;;;;;;;;;;;;;24.07;58.13;100168.72;5013385;28;19921;-91
2022/06/19 06:14:42;;;;;;;;;;;;;;;23.91;55.22;100154.50;5012482;28;19917;-86
2022/06/19 06:17:08;;;;;;;;;;;;;;;23.80;54.69;100156.97;5012351;28;20026;-85
2022/06/19 06:19:34;;;;;;;;;;;;;;;24.07;57.77;100155.25;5011977;28;19921;-84
2022/06/19 06:22:00;;;;;;;;;;;;;;;24.04;57.34;100152.75;5011961;28;19917;-84
2022/06/19 06:24:25;;;;;;;;;;;;;;;24.52;54.56;100151.50;5011420;28;19992;-85
2022/06/19 06:26:51;;;;;;;;;;;;;;;25.05;55.91;100155.16;5012368;28;19921;-86
2022/06/19 06:29:17;;;;;;;;;;;;;;;25.19;54.24;100155.09;5011202;28;19925;-86
2022/06/19 06:31:43;;;;;;;;;;;;;;;25.29;53.55;100151.78;5012636;28;19925;-88
2022/06/19 06:34:08;;;;;;;;;;;;;;;25.32;53.79;100146.16;5008801;28;20395;-88
2022/06/19 06:36:33;;;;;;;;;;;;;;;26.04;51.48;100140.19;4992435;28;19964;-84
2022/06/19 06:38:59;;;;;;;;;;;;;;;26.21;50.25;100136.25;4994678;28;19914;-84
2022/06/19 06:41:25;;;;;;;;;;;;;;;26.39;52.23;100144.88;4992815;28;19924;-84
2022/06/19 06:43:50;;;;;;;;;;;;;;;26.33;48.08;100140.75;5003542;28;20379;-85
2022/06/19 06:46:21;;;;;;;;;;;;;;;26.22;47.23;100138.00;5012438;28;19920;-85
2022/06/19 06:48:47;;;;;;;;;;;;;;;26.02;51.75;100136.75;5002245;28;19953;-85
2022/06/19 06:51:13;;;;;;;;;;;;;;;26.58;48.07;100134.38;5011040;28;20010;-87
2022/06/19 06:53:39;;;;;;;;;;;;;;;26.67;48.43;100138.28;5011802;28;20378;-87
2022/06/19 06:56:05;;;;;;;;;;;;;;;27.41;45.34;100140.75;5012210;28;20009;-86
2022/06/19 06:58:31;;;;;;;;;;;;;;;27.17;45.39;100138.09;5012041;28;19925;-84
2022/06/19 07:00:56;;;;;;;;;;;;;;;26.94;44.84;100142.56;5012232;28;19914;-85
2022/06/19 07:03:22;;;;;;;;;;;;;;;26.96;46.49;100138.75;5011411;28;19924;-86
2022/06/19 07:05:47;;;;;;;;;;;;;;;26.96;45.01;100137.91;5011824;28;19917;-85
2022/06/19 07:08:12;;;;;;;;;;;;;;;27.56;46.61;100124.28;5011364;28;20139;-89
2022/06/19 07:10:38;;;;;;;;;;;;;;;27.58;46.10;100128.59;5010392;28;20011;-86
2022/06/19 07:13:03;;;;;;;;;;;;;;;27.62;45.48;100124.66;5011500;28;20017;-85
2022/06/19 07:15:28;;;;;;;;;;;;;;;27.55;47.14;100123.41;5011593;28;20335;-88
2022/06/19 07:17:53;;;;;;;;;;;;;;;27.70;47.81;100137.59;5010774;28;20280;-88
2022/06/19 07:20:19;;;;;;;;;;;;;;;28.54;42.33;100129.00;5011415;28;19913;-89
2022/06/19 07:22:44;;;;;;;;;;;;;;;29.09;39.74;100127.06;5012080;28;19976;-91
2022/06/19 07:25:14;;;;;;;;;;;;;;;29.29;36.52;100122.66;5010696;28;19967;-92
2022/06/19 07:27:39;;;;;;;;;;;;;;;29.23;38.70;100134.06;4993627;28;19995;-92
2022/06/19 07:30:05;;;;;;;;;;;;;;;28.93;40.41;100124.81;5010755;28;20008;-92
2022/06/19 07:32:30;;;;;;;;;;;;;;;29.63;42.02;100121.56;5010775;28;20007;-90
2022/06/19 07:34:56;;;;;;;;;;;;;;;29.39;39.86;100124.56;5010498;28;19944;-91
2022/06/19 07:37:21;;;;;;;;;;;;;;;29.75;39.36;100125.91;5010133;28;20411;-92
2022/06/19 07:39:46;;;;;;;;;;;;;;;29.32;39.89;100126.09;4993358;28;19971;-92
2022/06/19 07:42:12;;;;;;;;;;;;;;;29.24;36.21;100126.75;4974701;28;20316;-90
2022/06/19 07:44:38;;;;;;;;;;;;;;;29.18;38.44;100119.09;4987764;28;19928;-91
2022/06/19 07:52:32;;;;;;;;;;;;;;;30.80;33.72;100126.47;4990961;28;19933;-95
2022/06/19 07:54:58;;;;;;;;;;;;;;;30.53;33.14;100117.16;4992711;28;19917;-95
2022/06/19 07:57:23;;;;;;;;;;;;;;;31.01;35.58;100112.75;4974457;28;19926;-96
2022/06/19 07:59:48;;;;;;;;;;;;;;;30.15;32.61;100119.66;4974534;28;19918;-92
2022/06/19 08:02:14;;;;;;;;;;;;;;;29.75;33.52;100122.31;4974633;28;19909;-94
2022/06/19 08:04:39;;;;;;;;;;;;;;;29.72;33.69;100123.47;4990843;28;19922;-91
2022/06/19 08:07:04;;;;;;;;;;;;;;;30.13;33.61;100112.63;4989721;28;19961;-93
2022/06/19 08:09:29;;;;;;;;;;;;;;;30.31;32.09;100116.38;4991630;28;19921;-94
2022/06/19 08:11:55;;;;;;;;;;;;;;;30.23;34.07;100115.34;4991150;28;19972;-96
2022/06/19 08:14:20;;;;;;;;;;;;;;;29.82;32.56;100115.38;4990986;28;19925;-89
2022/06/19 08:16:45;;;;;;;;;;;;;;;30.45;32.06;100115.16;4990720;28;20312;-90
2022/06/19 08:19:11;;;;;;;;;;;;;;;30.75;31.34;100112.44;4990911;28;19917;-87
2022/06/19 08:21:36;;;;;;;;;;;;;;;31.34;31.54;100108.69;4978723;28;20375;-93
2022/06/19 08:24:02;;;;;;;;;;;;;;;31.53;33.94;100107.75;4977591;28;20015;-94
2022/06/19 08:26:27;;;;;;;;;;;;;;;31.87;30.46;100096.31;4994757;28;19975;-90
2022/06/19 08:29:00;;;;;;;;;;;;;;;31.49;30.94;100097.28;4994952;28;19924;-88
2022/06/19 08:31:26;;;;;;;;;;;;;;;31.66;32.49;100091.09;4984515;28;19953;-90
2022/06/19 08:33:51;;;;;;;;;;;;;;;31.66;33.55;100092.97;4984743;28;20381;-89
2022/06/19 08:36:16;;;;;;;;;;;;;;;31.58;32.53;100085.53;5012783;28;19917;-89
2022/06/19 08:38:47;;;;;;;;;;;;;;;31.44;30.66;100094.16;5014588;28;19913;-91
2022/06/19 08:41:12;;;;;;;;;;;;;;;31.70;30.46;100087.06;5014619;28;20388;-88
2022/06/19 08:43:38;;;;;;;;;;;;;;;31.66;31.04;100090.22;4993457;28;19917;-87
2022/06/19 08:46:03;;;;;;;;;;;;;;;32.03;29.70;100083.88;4994903;28;20093;-88
2022/06/19 08:48:28;;;;;;;;;;;;;;;31.95;28.71;100080.03;4994856;28;19996;-88
2022/06/19 08:50:54;;;;;;;;;;;;;;;31.41;30.46;100071.63;4994731;28;20296;-90
2022/06/19 08:53:40;;;;;;;;;;;;;;;30.62;32.06;100077.34;4994300;28;19969;-89
2022/06/19 08:56:25;;;;;;;;;;;;;;;31.08;30.21;100077.59;4994521;28;20470;-90
2022/06/19 08:59:01;;;;;;;;;;;;;;;31.25;30.03;100076.88;4994523;28;19955;-89
2022/06/19 09:01:29;;;;;;;;;;;;;;;30.48;31.95;100074.03;4994794;28;19914;-88
2022/06/19 09:07:11;;;;;;;;;;;;;;;30.70;30.20;100075.59;4963517;28;20008;-88
2022/06/19 09:09:39;;;;;;;;;;;;;;;30.46;31.04;100078.78;4993113;28;19917;-87
2022/06/19 09:12:04;;;;;;;;;;;;;;;30.22;31.21;100073.69;4992784;28;20455;-87
2022/06/19 09:14:36;;;;;;;;;;;;;;;29.66;32.73;100069.66;4994402;28;19918;-86
2022/06/19 09:17:04;;;;;;;;;;;;;;;28.90;30.82;100075.31;4993709;28;19913;-86
2022/06/19 09:19:50;;;;;;;;;;;;;;;29.63;31.06;100073.50;4993729;28;20005;-88
2022/06/19 09:22:19;;;;;;;;;;;;;;;30.18;32.22;100074.97;4993693;28;20025;-85
2022/06/19 09:25:03;;;;;;;;;;;;;;;30.00;30.98;100066.66;4994417;28;19917;-86
2022/06/19 09:27:37;;;;;;;;;;;;;;;30.57;29.98;100068.72;4992999;28;20016;-86
2022/06/19 09:30:15;;;;;;;;;;;;;;;30.90;30.08;100053.81;4994614;28;20345;-87
2022/06/19 09:33:12;;;;;;;;;;;;;;;31.00;29.95;100059.25;4993954;28;19916;-86
2022/06/19 09:35:41;;;;;;;;;;;;;;;31.09;30.25;100058.38;4981529;28;19917;-87
2022/06/19 09:38:11;;;;;;;;;;;;;;;31.48;30.65;100055.56;4993437;28;19913;-88
2022/06/19 09:40:41;;;;;;;;;;;;;;;31.06;32.05;100050.50;4993798;28;19925;-87
2022/06/19 09:43:22;;;;;;;;;;;;;;;31.05;29.91;100046.09;4993081;28;19914;-87
2022/06/19 09:45:54;;;;;;;;;;;;;;;31.55;30.19;100048.50;4992976;28;19914;-87
2022/06/19 09:48:32;;;;;;;;;;;;;;;31.41;30.64;100046.25;4992392;28;20412;-84
2022/06/19 09:50:58;;;;;;;;;;;;;;;31.68;28.11;100050.03;4993341;28;19965;-86
2022/06/19 09:53:46;;;;;;;;;;;;;;;31.87;28.59;100040.88;4993987;28;20510;-88
2022/06/19 09:56:20;;;;;;;;;;;;;;;31.88;28.70;100046.19;4990308;28;19957;-88
2022/06/19 09:58:53;;;;;;;;;;;;;;;31.83;28.07;100040.34;4993754;28;20156;-89
2022/06/19 10:01:19;;;;;;;;;;;;;;;31.22;29.63;100045.31;4994086;28;19920;-92
2022/06/19 10:03:50;;;;;;;;;;;;;;;31.57;27.51;100041.06;4993385;28;19913;-91
2022/06/19 10:06:25;;;;;;;;;;;;;;;31.15;27.63;100033.28;4993590;28;19972;-94
2022/06/19 10:09:11;;;;;;;;;;;;;;;31.54;27.15;100032.31;4976432;28;19916;-93
2022/06/19 10:11:38;;;;;;;;;;;;;;;31.74;27.59;100033.06;4992766;28;20372;-93
2022/06/19 10:14:10;;;;;;;;;;;;;;;31.47;25.81;100029.31;4983137;28;19925;-93
2022/06/19 10:16:47;;;;;;;;;;;;;;;31.32;26.81;100025.34;4990107;28;20004;-90
2022/06/19 10:19:31;;;;;;;;;;;;;;;31.70;29.02;100012.56;4992700;28;20020;-86
2022/06/19 10:22:14;;;;;;;;;;;;;;;31.21;28.84;100019.06;4992844;28;19972;-86
2022/06/19 10:24:58;;;;;;;;;;;;;;;31.53;27.58;100008.78;4992588;28;19913;-88
2022/06/19 10:27:46;;;;;;;;;;;;;;;32.06;27.96;100015.38;4992638;28;19921;-91
2022/06/19 10:30:35;;;;;;;;;;;;;;;31.31;28.26;100005.44;4992350;28;19921;-89
2022/06/19 10:33:36;;;;;;;;;;;;;;;31.28;29.18;100008.44;4993285;28;19918;-87
2022/06/19 10:36:10;;;;;;;;;;;;;;;31.11;26.85;100001.03;4970853;28;20060;-88
2022/06/19 10:38:54;;;;;;;;;;;;;;;30.75;28.40;100004.38;4988476;28;19975;-88
2022/06/19 10:44:45;;;;;;;;;;;;;;;30.52;29.23;99999.28;4990996;28;20307;-88
2022/06/19 10:47:14;;;;;;;;;;;;;;;30.67;27.58;99996.94;4991004;28;20076;-88
2022/06/19 10:49:44;;;;;;;;;;;;;;;30.52;28.85;99996.56;4991456;28;20044;-89
2022/06/19 10:52:24;;;;;;;;;;;;;;;30.64;26.61;99982.78;4991009;28;19913;-88
2022/06/19 10:54:58;;;;;;;;;;;;;;;30.85;27.00;99979.88;5006317;28;19922;-88
2022/06/19 10:57:24;;;;;;;;;;;;;;;30.61;28.84;99985.78;4991306;28;19920;-88
2022/06/19 10:59:50;;;;;;;;;;;;;;;30.58;29.00;99980.63;4991488;28;19914;-88
2022/06/19 11:05:32;;;;;;;;;;;;;;;30.95;26.37;99977.13;4991057;28;20016;-91
2022/06/19 11:07:57;;;;;;;;;;;;;;;31.15;27.13;99975.22;4991097;28;20040;-89
2022/06/19 11:10:26;;;;;;;;;;;;;;;30.84;27.24;99976.28;4991409;28;20008;-87
2022/06/19 11:12:58;;;;;;;;;;;;;;;30.85;25.33;99974.44;4991103;28;20403;-89
2022/06/19 11:15:34;;;;;;;;;;;;;;;31.79;26.19;99968.00;5005994;28;19924;-90
2022/06/19 11:18:19;;;;;;;;;;;;;;;31.53;26.63;99960.56;4992376;28;19913;-91
2022/06/19 11:20:54;;;;;;;;;;;;;;;31.53;25.93;99957.81;4992380;28;19914;-86
2022/06/19 11:23:23;;;;;;;;;;;;;;;31.56;25.85;99956.72;4992206;28;20403;-86
2022/06/19 11:26:03;;;;;;;;;;;;;;;31.25;23.93;99956.97;4992443;28;19920;-86
2022/06/19 11:28:47;;;;;;;;;;;;;;;30.74;28.72;99956.41;4992008;28;19920;-84
2022/06/19 11:31:17;;;;;;;;;;;;;;;31.05;26.62;99958.94;4992424;28;19913;-86
2022/06/19 11:33:43;;;;;;;;;;;;;;;31.61;23.81;99961.72;4992005;28;19914;-86
2022/06/19 11:36:22;;;;;;;;;;;;;;;31.28;28.78;99959.41;5008500;28;20381;-85
2022/06/19 11:38:49;;;;;;;;;;;;;;;31.79;27.00;99959.84;5011417;28;20454;-85
2022/06/19 11:41:34;;;;;;;;;;;;;;;31.49;26.53;99955.56;5010967;28;19929;-87
2022/06/19 11:43:59;;;;;;;;;;;;;;;30.83;26.09;99963.69;5011546;28;20381;-87
2022/06/19 11:46:26;;;;;;;;;;;;;;;30.50;26.37;99957.72;5011513;28;19913;-84
2022/06/19 11:48:52;;;;;;;;;;;;;;;30.68;25.94;99949.69;5011771;28;19913;-86
2022/06/19 11:51:20;;;;;;;;;;;;;;;30.99;27.81;99954.06;5011351;28;19913;-87
2022/06/19 11:53:49;;;;;;;;;;;;;;;31.45;25.76;99952.28;5010613;28;19968;-87
2022/06/19 11:56:27;;;;;;;;;;;;;;;31.42;26.21;99955.31;5010132;28;19913;-88
2022/06/19 11:58:54;;;;;;;;;;;;;;;30.98;26.07;99949.63;5015434;28;19920;-86
2022/06/19 12:01:21;;;;;;;;;;;;;;;31.35;24.25;99943.31;5014644;28;19925;-87
2022/06/19 12:03:48;;;;;;;;;;;;;;;31.12;25.30;99943.69;5015340;28;20438;-86
2022/06/19 12:06:14;;;;;;;;;;;;;;;31.68;25.26;99943.69;5014368;28;19923;-86
2022/06/19 12:08:48;;;;;;;;;;;;;;;31.36;26.49;99934.97;5015343;28;19914;-85
2022/06/19 12:11:14;;;;;;;;;;;;;;;31.35;26.34;99935.13;4995856;28;19918;-84
2022/06/19 12:13:41;;;;;;;;;;;;;;;30.74;24.64;99937.34;4995356;28;19973;-83
2022/06/19 12:16:11;;;;;;;;;;;;;;;31.11;25.37;99922.91;4995424;28;19914;-85
2022/06/19 12:18:37;;;;;;;;;;;;;;;31.72;24.53;99932.34;4995753;28;20004;-86
2022/06/19 12:21:05;;;;;;;;;;;;;;;30.96;26.35;99921.66;4994357;28;20052;-83
2022/06/19 12:23:37;;;;;;;;;;;;;;;30.60;27.75;99921.47;4995716;28;19910;-82
2022/06/19 12:26:06;;;;;;;;;;;;;;;30.18;28.24;99919.91;4996187;28;19957;-86
2022/06/19 12:28:38;;;;;;;;;;;;;;;29.96;28.47;99923.78;5014346;28;19921;-86
2022/06/19 12:31:09;;;;;;;;;;;;;;;29.71;28.89;99917.03;5014470;28;20310;-87
2022/06/19 12:33:48;;;;;;;;;;;;;;;30.34;26.83;99919.34;5010716;28;19918;-87
2022/06/19 12:36:18;;;;;;;;;;;;;;;30.56;27.03;99909.19;5014381;28;19922;-85
2022/06/19 12:38:44;;;;;;;;;;;;;;;30.38;26.22;99901.72;5014752;28;19996;-86
2022/06/19 12:41:15;;;;;;;;;;;;;;;30.52;26.65;99906.75;5014303;28;20079;-85
2022/06/19 12:43:52;;;;;;;;;;;;;;;30.82;25.43;99893.06;5001917;28;20012;-85
2022/06/19 12:46:25;;;;;;;;;;;;;;;31.50;22.78;99890.00;5014881;28;20361;-85
2022/06/19 12:48:56;;;;;;;;;;;;;;;31.98;24.40;99892.53;5000999;28;19917;-83
2022/06/19 12:51:31;;;;;;;;;;;;;;;31.49;24.73;99890.16;4995253;28;20444;-82
2022/06/19 12:53:56;;;;;;;;;;;;;;;31.12;24.48;99885.63;4994973;28;19925;-83
2022/06/19 12:56:30;;;;;;;;;;;;;;;30.71;25.62;99891.38;5012216;28;19917;-86
2022/06/19 12:58:56;;;;;;;;;;;;;;;30.68;23.79;99883.50;5013783;28;20027;-86